ORER/EBL METAR and TAF weather

Enter ICAO airport designator
Station Type Date Time Source
ORER METAR 2020/01/22 18:00 UTC NOAA

ORER 221800Z 31005KT 7000 NSC 07/06 Q1016 NOSIG


Station Type Date Time Source
ORER Decoded METAR 2020/01/22 18:00 UTC NOAA

Station name not available
Jan 22, 2020 - 01:00 PM EST / 2020.01.22 1800 UTC
Wind: from the NW (310 degrees) at 6 MPH (5 KT):0
Visibility: 4 mile(s):0
Temperature: 44 F (7 C)
Dew Point: 42 F (6 C)
Relative Humidity: 93%
Pressure (altimeter): 30.00 in. Hg (1016 hPa)
ob: ORER 221800Z 31005KT 7000 NSC 07/06 Q1016 NOSIG
cycle: 18

Station Type Date Time Source
ORER TAF 2020/01/22 18:38 UTC NOAA

TAF ORER 221700Z 2218/2318 VRB03KT 6000 SCT040
TEMPO 2218/2306 3000 BR
BECMG 2310/2312 12008KT BKN030 BKN080

Example: see airport list